Time;durP1;ratioP1;P1;durP2;ratioP2;P2;SDS_P1;SDS_P2;PMS_P1;PMS_P2;Temp;Humidity;BMP_temperature;BMP_pressure;BME280_temperature;BME280_humidity;BME280_pressure;Samples;Min_cycle;Max_cycle;Signal;HPM_P1;HPM_P2
2021/05/15 00:01:33;;;;;;;;;;;13.50;78.10;;;;;;4318225;33;20010;-70
2021/05/15 00:04:02;;;;;;;;;;;13.50;78.10;;;;;;4317248;33;20445;-70
2021/05/15 00:06:28;;;;;;;;;;;13.50;78.10;;;;;;4317970;33;20408;-70
2021/05/15 00:08:55;;;;;;;;;;;13.50;78.20;;;;;;4318562;33;20006;-70
2021/05/15 00:11:20;;;;;;;;;;;13.40;78.10;;;;;;4318228;33;20014;-70
2021/05/15 00:13:47;;;;;;;;;;;13.40;78.10;;;;;;4329844;33;20316;-70
2021/05/15 00:16:15;;;;;;;;;;;13.40;78.10;;;;;;4318141;33;20378;-70
2021/05/15 00:18:41;;;;;;;;;;;13.40;78.10;;;;;;4304646;33;20442;-70
2021/05/15 00:21:07;;;;;;;;;;;13.40;78.20;;;;;;4318405;33;20014;-70
2021/05/15 00:23:34;;;;;;;;;;;13.40;78.20;;;;;;4318077;33;20006;-70
2021/05/15 00:26:00;;;;;;;;;;;13.40;78.20;;;;;;4317917;33;20002;-70
2021/05/15 00:28:27;;;;;;;;;;;13.40;78.30;;;;;;4318290;33;20033;-70
2021/05/15 00:30:56;;;;;;;;;;;13.40;78.20;;;;;;4318141;33;20091;-69
2021/05/15 00:33:22;;;;;;;;;;;13.40;78.30;;;;;;4318238;33;20359;-70
2021/05/15 00:35:48;;;;;;;;;;;13.40;79.00;;;;;;4318207;33;20062;-69
2021/05/15 00:38:14;;;;;;;;;;;13.50;78.20;;;;;;4318091;33;20010;-69
2021/05/15 00:40:40;;;;;;;;;;;13.50;78.10;;;;;;4328875;33;20005;-69
2021/05/15 00:43:08;;;;;;;;;;;13.50;78.00;;;;;;4328897;33;20102;-69
2021/05/15 00:45:33;;;;;;;;;;;13.60;77.90;;;;;;4318102;33;20020;-69
2021/05/15 00:47:59;;;;;;;;;;;13.60;77.90;;;;;;4317900;33;20010;-69
2021/05/15 00:50:26;;;;;;;;;;;13.50;77.80;;;;;;4328800;33;20199;-69
2021/05/15 00:52:52;;;;;;;;;;;13.50;77.90;;;;;;4317901;33;20010;-70
2021/05/15 00:55:18;;;;;;;;;;;13.50;78.00;;;;;;4317322;33;20013;-69
2021/05/15 00:57:44;;;;;;;;;;;13.50;77.90;;;;;;4328856;33;20027;-69
2021/05/15 01:00:12;;;;;;;;;;;13.50;78.00;;;;;;4316783;33;20346;-69
2021/05/15 01:02:38;;;;;;;;;;;13.50;78.00;;;;;;4316027;33;20002;-69
2021/05/15 01:05:05;;;;;;;;;;;13.50;78.00;;;;;;4317418;33;20057;-69
2021/05/15 01:07:34;;;;;;;;;;;13.50;78.00;;;;;;4316254;33;20016;-70
2021/05/15 01:10:01;;;;;;;;;;;13.50;78.00;;;;;;4317675;33;20023;-69
2021/05/15 01:12:27;;;;;;;;;;;13.50;78.00;;;;;;4317617;33;20014;-69
2021/05/15 01:14:52;;;;;;;;;;;13.40;78.10;;;;;;4317474;33;20005;-69
2021/05/15 01:17:21;;;;;;;;;;;13.40;78.20;;;;;;4317521;33;20010;-69
2021/05/15 01:19:47;;;;;;;;;;;13.40;78.40;;;;;;4317578;33;20362;-69
2021/05/15 01:22:15;;;;;;;;;;;13.40;78.40;;;;;;4317550;33;20009;-70
2021/05/15 01:24:45;;;;;;;;;;;13.30;78.50;;;;;;4317593;33;20376;-70
2021/05/15 01:27:15;;;;;;;;;;;13.30;78.60;;;;;;4316087;33;20014;-70
2021/05/15 01:29:45;;;;;;;;;;;13.20;78.90;;;;;;4316898;33;20043;-69
2021/05/15 01:32:10;;;;;;;;;;;13.20;79.20;;;;;;4317374;33;20002;-70
2021/05/15 01:34:39;;;;;;;;;;;13.10;79.30;;;;;;4317740;33;20108;-70
2021/05/15 01:37:07;;;;;;;;;;;13.20;79.40;;;;;;4316972;33;20053;-70
2021/05/15 01:39:33;;;;;;;;;;;13.20;79.40;;;;;;4328252;33;20009;-69
2021/05/15 01:42:04;;;;;;;;;;;13.20;79.40;;;;;;4317424;33;20045;-69
2021/05/15 01:44:31;;;;;;;;;;;13.20;79.30;;;;;;4317595;33;20002;-70
2021/05/15 01:46:57;;;;;;;;;;;13.20;79.30;;;;;;4317421;33;20048;-70
2021/05/15 01:49:23;;;;;;;;;;;13.20;79.40;;;;;;4317313;33;20021;-70
2021/05/15 01:51:49;;;;;;;;;;;13.20;79.40;;;;;;4328138;33;20039;-70
2021/05/15 01:54:15;;;;;;;;;;;13.20;79.50;;;;;;4317506;33;20006;-70
2021/05/15 01:56:41;;;;;;;;;;;13.30;79.60;;;;;;4317052;33;20002;-69
2021/05/15 01:59:09;;;;;;;;;;;13.30;79.50;;;;;;4317140;33;20006;-69
2021/05/15 02:01:36;;;;;;;;;;;13.30;79.40;;;;;;4317019;33;20002;-70
2021/05/15 02:04:02;;;;;;;;;;;13.30;79.70;;;;;;4317282;33;20047;-70
2021/05/15 02:06:28;;;;;;;;;;;13.20;79.50;;;;;;4315845;33;20415;-70
2021/05/15 02:08:56;;;;;;;;;;;13.20;79.60;;;;;;4317095;33;20038;-70
2021/05/15 02:11:22;;;;;;;;;;;13.20;79.80;;;;;;4317001;33;20006;-70
2021/05/15 02:13:49;;;;;;;;;;;13.20;79.80;;;;;;4317231;33;20020;-70
2021/05/15 02:16:16;;;;;;;;;;;13.20;79.90;;;;;;4317059;33;20051;-70
2021/05/15 02:18:42;;;;;;;;;;;13.10;80.20;;;;;;4319716;33;20014;-70
2021/05/15 02:21:08;;;;;;;;;;;13.10;80.30;;;;;;4319752;33;19998;-70
2021/05/15 02:23:34;;;;;;;;;;;13.10;80.70;;;;;;4319760;33;20049;-70
2021/05/15 02:26:01;;;;;;;;;;;13.00;80.70;;;;;;4319814;33;20328;-70
2021/05/15 02:28:27;;;;;;;;;;;13.00;80.80;;;;;;4306814;33;20075;-70
2021/05/15 02:30:53;;;;;;;;;;;13.00;81.60;;;;;;4320022;33;20014;-70
2021/05/15 02:33:22;;;;;;;;;;;13.00;81.10;;;;;;4319873;33;19997;-70
2021/05/15 02:35:48;;;;;;;;;;;13.00;81.10;;;;;;4318659;33;20006;-70
2021/05/15 02:38:15;;;;;;;;;;;13.00;81.20;;;;;;4319897;33;20045;-70
2021/05/15 02:40:41;;;;;;;;;;;13.00;81.10;;;;;;4319715;33;20012;-70
2021/05/15 02:43:09;;;;;;;;;;;13.00;81.30;;;;;;4319477;33;20006;-70
2021/05/15 02:45:36;;;;;;;;;;;13.00;81.40;;;;;;4319670;33;20328;-70
2021/05/15 02:48:02;;;;;;;;;;;13.00;81.20;;;;;;4319679;33;20006;-70
2021/05/15 02:50:28;;;;;;;;;;;13.00;81.30;;;;;;4319682;33;20016;-70
2021/05/15 02:52:54;;;;;;;;;;;13.00;81.30;;;;;;4319667;33;20014;-70
2021/05/15 02:55:21;;;;;;;;;;;13.00;81.40;;;;;;4319361;33;20053;-70
2021/05/15 02:57:47;;;;;;;;;;;13.00;81.30;;;;;;4319459;33;20065;-70
2021/05/15 03:00:15;;;;;;;;;;;13.00;81.50;;;;;;4319535;33;20016;-70
2021/05/15 03:02:41;;;;;;;;;;;12.90;81.50;;;;;;4330103;33;20026;-70
2021/05/15 03:05:09;;;;;;;;;;;13.00;81.60;;;;;;4319518;33;20001;-70
2021/05/15 03:07:37;;;;;;;;;;;12.90;81.80;;;;;;4319163;33;20002;-70
2021/05/15 03:10:06;;;;;;;;;;;12.90;82.00;;;;;;4319386;33;20450;-70
2021/05/15 03:12:34;;;;;;;;;;;12.90;82.00;;;;;;4319397;33;20035;-70
2021/05/15 03:15:00;;;;;;;;;;;12.90;82.20;;;;;;4318136;33;20013;-71
2021/05/15 03:17:26;;;;;;;;;;;12.80;82.30;;;;;;4318863;33;20557;-71
2021/05/15 03:19:53;;;;;;;;;;;12.80;82.50;;;;;;4319291;33;20012;-71
2021/05/15 03:22:20;;;;;;;;;;;12.80;82.50;;;;;;4319286;33;20010;-71
2021/05/15 03:24:49;;;;;;;;;;;12.80;82.90;;;;;;4318855;33;20078;-71
2021/05/15 03:27:15;;;;;;;;;;;12.80;82.90;;;;;;4319056;33;20006;-71
2021/05/15 03:29:44;;;;;;;;;;;12.80;82.90;;;;;;4318601;33;20371;-71
2021/05/15 03:32:10;;;;;;;;;;;12.80;82.70;;;;;;4318930;33;20002;-71
2021/05/15 03:34:36;;;;;;;;;;;12.80;82.90;;;;;;4318638;33;20020;-71
2021/05/15 03:37:04;;;;;;;;;;;12.80;83.70;;;;;;4318741;33;20039;-71
2021/05/15 03:39:31;;;;;;;;;;;12.80;83.00;;;;;;4318868;33;20010;-71
2021/05/15 03:41:57;;;;;;;;;;;12.80;83.00;;;;;;4318964;33;20095;-71
2021/05/15 03:44:23;;;;;;;;;;;12.80;83.10;;;;;;4318937;33;20396;-71
2021/05/15 03:46:49;;;;;;;;;;;12.80;83.10;;;;;;4318555;33;19998;-71
2021/05/15 03:49:15;;;;;;;;;;;12.80;83.10;;;;;;4318795;33;20057;-71
2021/05/15 03:51:41;;;;;;;;;;;12.80;83.10;;;;;;4318635;33;20035;-71
2021/05/15 03:54:07;;;;;;;;;;;12.70;83.30;;;;;;4318728;33;20092;-71
2021/05/15 03:56:33;;;;;;;;;;;12.80;83.30;;;;;;4318728;33;20400;-71
2021/05/15 03:58:59;;;;;;;;;;;12.70;83.30;;;;;;4317515;33;20006;-71
2021/05/15 04:01:26;;;;;;;;;;;12.70;83.40;;;;;;4317292;33;20010;-71
2021/05/15 04:03:52;;;;;;;;;;;12.70;83.50;;;;;;4318911;33;20009;-71
2021/05/15 04:06:18;;;;;;;;;;;12.70;83.70;;;;;;4318456;33;20020;-71
2021/05/15 04:08:44;;;;;;;;;;;12.70;83.70;;;;;;4317371;33;20422;-71
2021/05/15 04:11:10;;;;;;;;;;;12.60;83.70;;;;;;4317360;33;20407;-71
2021/05/15 04:16:09;;;;;;;;;;;12.60;83.80;;;;;;4318046;33;20044;-71
2021/05/15 04:18:35;;;;;;;;;;;12.60;83.90;;;;;;4318455;33;20006;-71
2021/05/15 04:21:01;;;;;;;;;;;12.60;84.00;;;;;;4318227;33;20010;-71
2021/05/15 04:23:27;;;;;;;;;;;12.70;84.00;;;;;;4318458;33;20104;-71
2021/05/15 04:25:53;;;;;;;;;;;12.70;83.90;;;;;;4317414;33;20018;-71
2021/05/15 04:28:19;;;;;;;;;;;12.70;83.90;;;;;;4318272;33;20006;-71
2021/05/15 04:30:45;;;;;;;;;;;12.70;83.90;;;;;;4318316;33;20419;-71
2021/05/15 04:33:11;;;;;;;;;;;12.70;83.90;;;;;;4317979;33;20020;-71
2021/05/15 04:35:37;;;;;;;;;;;12.70;84.10;;;;;;4317953;33;20069;-71
2021/05/15 04:38:04;;;;;;;;;;;12.70;84.00;;;;;;4318059;33;20001;-71
2021/05/15 04:40:30;;;;;;;;;;;12.60;83.90;;;;;;4317542;33;20009;-71
2021/05/15 04:42:56;;;;;;;;;;;12.60;84.10;;;;;;4317976;33;20013;-71
2021/05/15 04:45:23;;;;;;;;;;;12.60;84.10;;;;;;4316953;33;20016;-71
2021/05/15 04:47:49;;;;;;;;;;;12.60;84.30;;;;;;4318092;33;20043;-71
2021/05/15 04:50:15;;;;;;;;;;;12.60;84.30;;;;;;4317821;33;20418;-71
2021/05/15 04:52:41;;;;;;;;;;;12.60;84.40;;;;;;4328962;33;20024;-71
2021/05/15 04:55:07;;;;;;;;;;;12.60;84.30;;;;;;4316770;33;20073;-71
2021/05/15 04:57:33;;;;;;;;;;;12.60;84.40;;;;;;4317847;33;20025;-72
2021/05/15 04:59:59;;;;;;;;;;;12.60;84.30;;;;;;4329228;33;20010;-71
2021/05/15 05:02:25;;;;;;;;;;;12.60;84.40;;;;;;4317385;33;20009;-71
2021/05/15 05:04:51;;;;;;;;;;;12.50;84.30;;;;;;4304403;33;20017;-71
2021/05/15 05:07:17;;;;;;;;;;;12.60;84.30;;;;;;4317501;33;20079;-71
2021/05/15 05:09:43;;;;;;;;;;;12.60;84.30;;;;;;4317883;33;20018;-72
2021/05/15 05:12:09;;;;;;;;;;;12.60;84.40;;;;;;4317714;33;20002;-72
2021/05/15 05:14:37;;;;;;;;;;;12.60;84.40;;;;;;4317749;33;20020;-72
2021/05/15 05:17:07;;;;;;;;;;;12.50;84.20;;;;;;4317816;33;20002;-72
2021/05/15 05:19:33;;;;;;;;;;;12.50;84.40;;;;;;4317680;33;20069;-72
2021/05/15 05:22:03;;;;;;;;;;;12.40;84.50;;;;;;4328556;33;20010;-72
2021/05/15 05:24:29;;;;;;;;;;;12.40;84.60;;;;;;4317500;33;20010;-72
2021/05/15 05:26:55;;;;;;;;;;;12.40;84.80;;;;;;4317404;33;20016;-72
2021/05/15 05:29:21;;;;;;;;;;;12.40;84.80;;;;;;4317240;33;20005;-72
2021/05/15 05:31:49;;;;;;;;;;;12.40;84.80;;;;;;4317267;33;20006;-72
2021/05/15 05:34:15;;;;;;;;;;;12.30;84.70;;;;;;4317614;33;20002;-72
2021/05/15 05:36:41;;;;;;;;;;;12.40;84.90;;;;;;4317537;33;20016;-71
2021/05/15 05:39:11;;;;;;;;;;;12.40;84.90;;;;;;4317400;33;20028;-71
2021/05/15 05:41:37;;;;;;;;;;;12.40;85.00;;;;;;4316497;33;20506;-71
2021/05/15 05:44:06;;;;;;;;;;;12.40;84.60;;;;;;4328197;33;20051;-71
2021/05/15 05:46:32;;;;;;;;;;;12.50;84.60;;;;;;4315990;33;19998;-71
2021/05/15 05:48:59;;;;;;;;;;;12.50;84.30;;;;;;4317624;33;20010;-71
2021/05/15 05:51:25;;;;;;;;;;;12.60;84.20;;;;;;4317346;33;20002;-71
2021/05/15 05:53:51;;;;;;;;;;;12.60;83.90;;;;;;4317245;33;20006;-71
2021/05/15 05:56:17;;;;;;;;;;;12.60;83.70;;;;;;4316052;33;20032;-71
2021/05/15 05:58:45;;;;;;;;;;;12.70;83.70;;;;;;4316979;33;20104;-71
2021/05/15 06:01:11;;;;;;;;;;;12.70;83.70;;;;;;4317199;33;20006;-71
2021/05/15 06:03:37;;;;;;;;;;;12.70;83.60;;;;;;4315619;33;20008;-71
2021/05/15 06:06:03;;;;;;;;;;;12.60;83.60;;;;;;4317191;33;20392;-71
2021/05/15 06:08:29;;;;;;;;;;;12.70;83.70;;;;;;4316057;33;20086;-71
2021/05/15 06:10:55;;;;;;;;;;;12.70;83.60;;;;;;4317235;33;20014;-71
2021/05/15 06:13:21;;;;;;;;;;;12.70;83.50;;;;;;4316954;33;20006;-71
2021/05/15 06:15:47;;;;;;;;;;;12.60;83.60;;;;;;4317157;33;20002;-72
2021/05/15 06:18:13;;;;;;;;;;;12.60;83.70;;;;;;4303819;33;20032;-72
2021/05/15 06:20:40;;;;;;;;;;;12.60;83.80;;;;;;4315998;33;20058;-72
2021/05/15 06:23:08;;;;;;;;;;;12.50;83.80;;;;;;4317165;33;20020;-72
2021/05/15 06:25:34;;;;;;;;;;;12.50;84.00;;;;;;4328252;33;20066;-72
2021/05/15 06:28:02;;;;;;;;;;;12.50;84.00;;;;;;4316991;33;20002;-72
2021/05/15 06:30:28;;;;;;;;;;;12.50;84.20;;;;;;4315535;33;20006;-72
2021/05/15 06:32:54;;;;;;;;;;;12.50;84.10;;;;;;4315758;33;20009;-72
2021/05/15 06:35:20;;;;;;;;;;;12.50;84.10;;;;;;4317010;33;20045;-72
2021/05/15 06:37:48;;;;;;;;;;;12.50;84.20;;;;;;4316957;33;20014;-72
2021/05/15 06:40:14;;;;;;;;;;;12.50;84.30;;;;;;4327387;33;20385;-72
2021/05/15 06:42:40;;;;;;;;;;;12.50;84.30;;;;;;4317238;33;20010;-72
2021/05/15 06:45:06;;;;;;;;;;;12.40;84.30;;;;;;4316768;33;20002;-72
2021/05/15 06:47:32;;;;;;;;;;;12.50;84.40;;;;;;4317035;33;20002;-72
2021/05/15 06:49:59;;;;;;;;;;;12.40;84.30;;;;;;4316746;33;20014;-72
2021/05/15 06:52:28;;;;;;;;;;;12.50;84.40;;;;;;4315827;33;20009;-73
2021/05/15 06:54:53;;;;;;;;;;;12.50;84.30;;;;;;4316790;33;20001;-72
2021/05/15 06:57:22;;;;;;;;;;;12.50;84.60;;;;;;4316567;33;20074;-73
2021/05/15 06:59:48;;;;;;;;;;;12.50;84.50;;;;;;4317019;33;20415;-73
2021/05/15 07:02:14;;;;;;;;;;;12.40;84.40;;;;;;4327547;33;20008;-73
2021/05/15 07:04:40;;;;;;;;;;;12.50;84.50;;;;;;4318132;33;20031;-73
2021/05/15 07:07:05;;;;;;;;;;;12.50;84.40;;;;;;4319434;33;20350;-73
2021/05/15 07:09:31;;;;;;;;;;;12.50;84.50;;;;;;4319439;33;20742;-73
2021/05/15 07:11:57;;;;;;;;;;;12.50;84.40;;;;;;4319127;33;20024;-73
2021/05/15 07:14:24;;;;;;;;;;;12.50;84.40;;;;;;4319237;33;20010;-73
2021/05/15 07:16:49;;;;;;;;;;;12.50;84.50;;;;;;4319120;33;20002;-73
2021/05/15 07:19:15;;;;;;;;;;;12.50;84.70;;;;;;4319338;33;20388;-73
2021/05/15 07:21:42;;;;;;;;;;;12.60;84.70;;;;;;4319195;33;20383;-73
2021/05/15 07:24:08;;;;;;;;;;;12.50;84.70;;;;;;4318906;33;20001;-73
2021/05/15 07:26:34;;;;;;;;;;;12.60;84.90;;;;;;4330134;33;20073;-73
2021/05/15 07:29:00;;;;;;;;;;;12.50;84.80;;;;;;4319204;33;20014;-73
2021/05/15 07:31:26;;;;;;;;;;;12.50;84.80;;;;;;4318974;33;20041;-73
2021/05/15 07:33:52;;;;;;;;;;;12.50;84.80;;;;;;4319039;33;20002;-73
2021/05/15 07:36:18;;;;;;;;;;;12.60;84.80;;;;;;4318968;33;20019;-74
2021/05/15 07:38:48;;;;;;;;;;;12.60;84.60;;;;;;4319062;33;20019;-73
2021/05/15 07:41:15;;;;;;;;;;;12.60;84.70;;;;;;4318633;33;20013;-73
2021/05/15 07:43:41;;;;;;;;;;;12.60;84.80;;;;;;4318747;33;20014;-73
2021/05/15 07:46:07;;;;;;;;;;;12.60;84.70;;;;;;4317836;33;20075;-73
2021/05/15 07:48:40;;;;;;;;;;;12.60;84.90;;;;;;4318851;33;20012;-73
2021/05/15 07:51:21;;;;;;;;;;;12.50;84.70;;;;;;4318873;33;20047;-73
2021/05/15 07:53:48;;;;;;;;;;;12.50;85.00;;;;;;4318853;33;20486;-73
2021/05/15 07:56:14;;;;;;;;;;;12.50;85.00;;;;;;4317687;33;20010;-73
2021/05/15 07:58:40;;;;;;;;;;;12.50;84.90;;;;;;4318758;33;20020;-73
2021/05/15 08:01:06;;;;;;;;;;;12.60;85.00;;;;;;4318722;33;20003;-73
2021/05/15 08:03:32;;;;;;;;;;;12.60;84.90;;;;;;4317492;33;20048;-73
2021/05/15 08:05:58;;;;;;;;;;;12.50;84.90;;;;;;4318303;33;20415;-73
2021/05/15 08:08:24;;;;;;;;;;;12.50;85.00;;;;;;4318818;33;20053;-73
2021/05/15 08:10:51;;;;;;;;;;;12.50;85.00;;;;;;4318587;33;20354;-73
2021/05/15 08:13:16;;;;;;;;;;;12.50;85.00;;;;;;4305023;33;20020;-73
2021/05/15 08:15:45;;;;;;;;;;;12.50;85.10;;;;;;4317531;33;20005;-72
2021/05/15 08:18:11;;;;;;;;;;;12.50;85.40;;;;;;4318262;33;20043;-73
2021/05/15 08:20:38;;;;;;;;;;;12.50;85.70;;;;;;4318628;33;20010;-72
2021/05/15 08:23:04;;;;;;;;;;;12.50;85.80;;;;;;4318475;33;20458;-73
2021/05/15 08:25:30;;;;;;;;;;;12.40;85.90;;;;;;4317048;33;20027;-72
2021/05/15 08:27:59;;;;;;;;;;;12.40;85.90;;;;;;4318025;33;20006;-73
2021/05/15 08:30:28;;;;;;;;;;;12.40;86.20;;;;;;4318219;33;20009;-73
2021/05/15 08:32:55;;;;;;;;;;;12.30;86.00;;;;;;4318131;33;20002;-73
2021/05/15 08:35:22;;;;;;;;;;;12.30;85.70;;;;;;4317835;33;20429;-72
2021/05/15 08:37:47;;;;;;;;;;;12.40;85.70;;;;;;4317782;33;20458;-72
2021/05/15 08:40:14;;;;;;;;;;;12.40;85.60;;;;;;4318294;33;20045;-72
2021/05/15 08:42:41;;;;;;;;;;;12.40;85.70;;;;;;4317931;33;20019;-72
2021/05/15 08:45:08;;;;;;;;;;;12.40;85.80;;;;;;4318000;33;20069;-72
2021/05/15 08:47:36;;;;;;;;;;;12.40;85.90;;;;;;4318047;33;20043;-73
2021/05/15 08:50:07;;;;;;;;;;;12.40;86.20;;;;;;4329027;33;20036;-73
2021/05/15 08:52:34;;;;;;;;;;;12.30;86.40;;;;;;4317983;33;20105;-73
2021/05/15 08:55:00;;;;;;;;;;;12.30;86.60;;;;;;4316487;33;20002;-73
2021/05/15 08:57:26;;;;;;;;;;;12.20;86.70;;;;;;4317716;33;20002;-73
2021/05/15 08:59:52;;;;;;;;;;;12.20;86.80;;;;;;4316521;33;20006;-73
2021/05/15 09:02:18;;;;;;;;;;;12.20;86.60;;;;;;4317476;33;20057;-73
2021/05/15 09:05:08;;;;;;;;;;;12.20;86.60;;;;;;4317820;33;20065;-73
2021/05/15 09:07:36;;;;;;;;;;;12.20;86.70;;;;;;4317640;33;19998;-73
2021/05/15 09:10:04;;;;;;;;;;;12.20;86.60;;;;;;4317057;33;20147;-73
2021/05/15 09:12:31;;;;;;;;;;;12.30;86.80;;;;;;4328473;33;20009;-73
2021/05/15 09:14:59;;;;;;;;;;;12.30;86.60;;;;;;4317005;33;20002;-73
2021/05/15 09:17:26;;;;;;;;;;;12.40;86.80;;;;;;4317185;33;20352;-73
2021/05/15 09:19:54;;;;;;;;;;;12.40;87.10;;;;;;4317100;33;20006;-73
2021/05/15 09:22:26;;;;;;;;;;;12.40;87.30;;;;;;4316987;33;20006;-73
2021/05/15 09:24:53;;;;;;;;;;;12.40;87.20;;;;;;4317170;33;20057;-73
2021/05/15 09:27:31;;;;;;;;;;;12.40;87.10;;;;;;4315840;33;20025;-73
2021/05/15 09:29:58;;;;;;;;;;;12.40;86.80;;;;;;4317716;33;20060;-73
2021/05/15 09:32:31;;;;;;;;;;;12.50;87.60;;;;;;4316412;33;20343;-73
2021/05/15 09:34:59;;;;;;;;;;;12.50;87.30;;;;;;4316026;33;20591;-73
2021/05/15 09:37:27;;;;;;;;;;;12.50;87.00;;;;;;4317261;33;20005;-73
2021/05/15 09:39:56;;;;;;;;;;;12.60;87.00;;;;;;4317271;33;20023;-73
2021/05/15 09:42:23;;;;;;;;;;;12.60;86.60;;;;;;4315633;33;20392;-73
2021/05/15 09:44:50;;;;;;;;;;;12.60;86.70;;;;;;4316852;33;20016;-73
2021/05/15 09:47:18;;;;;;;;;;;12.70;86.50;;;;;;4317187;33;20001;-73
2021/05/15 09:49:45;;;;;;;;;;;12.70;86.30;;;;;;4317383;33;20005;-73
2021/05/15 09:52:12;;;;;;;;;;;12.70;85.70;;;;;;4316738;33;20006;-73
2021/05/15 09:54:40;;;;;;;;;;;12.80;85.40;;;;;;4316951;33;20020;-73
2021/05/15 09:57:09;;;;;;;;;;;12.80;84.80;;;;;;4316968;33;20005;-73
2021/05/15 09:59:37;;;;;;;;;;;12.80;84.60;;;;;;4315771;33;19998;-73
2021/05/15 10:02:06;;;;;;;;;;;12.80;84.90;;;;;;4315506;33;20363;-73
2021/05/15 10:04:39;;;;;;;;;;;12.80;84.90;;;;;;4316968;33;20021;-73
2021/05/15 10:07:37;;;;;;;;;;;12.90;84.50;;;;;;4328060;33;20021;-73
2021/05/15 10:10:06;;;;;;;;;;;12.90;84.60;;;;;;4316423;33;20006;-73
2021/05/15 10:12:33;;;;;;;;;;;13.00;84.60;;;;;;4316705;33;20958;-73
2021/05/15 10:15:04;;;;;;;;;;;13.10;83.60;;;;;;4316750;33;20006;-73
2021/05/15 10:17:33;;;;;;;;;;;13.10;83.10;;;;;;4316895;33;20021;-73
2021/05/15 10:20:04;;;;;;;;;;;13.10;82.90;;;;;;4315713;33;20025;-73
2021/05/15 10:22:39;;;;;;;;;;;13.10;82.40;;;;;;4316011;33;20012;-73
2021/05/15 10:25:10;;;;;;;;;;;13.20;82.60;;;;;;4317009;33;20001;-73
2021/05/15 10:27:42;;;;;;;;;;;13.20;82.00;;;;;;4317220;33;20006;-73
2021/05/15 10:30:12;;;;;;;;;;;13.20;81.50;;;;;;4317089;33;20023;-73
2021/05/15 10:33:01;;;;;;;;;;;13.20;81.30;;;;;;4317233;33;20016;-73
2021/05/15 10:35:30;;;;;;;;;;;13.20;80.80;;;;;;4316571;33;20483;-73
2021/05/15 10:38:00;;;;;;;;;;;13.20;80.70;;;;;;4317045;33;20002;-73
2021/05/15 10:40:30;;;;;;;;;;;13.20;81.00;;;;;;4319847;33;20010;-73
2021/05/15 10:43:01;;;;;;;;;;;13.20;80.50;;;;;;4319452;33;20010;-73
2021/05/15 10:45:38;;;;;;;;;;;13.20;79.70;;;;;;4319801;33;20006;-73
2021/05/15 10:48:12;;;;;;;;;;;13.20;80.60;;;;;;4318577;33;20425;-73
2021/05/15 10:50:59;;;;;;;;;;;13.20;81.30;;;;;;4319401;33;20545;-73
2021/05/15 10:53:26;;;;;;;;;;;13.20;80.60;;;;;;4318268;33;20068;-73
2021/05/15 10:56:02;;;;;;;;;;;13.20;80.40;;;;;;4330404;33;20014;-73
2021/05/15 10:58:45;;;;;;;;;;;13.20;80.50;;;;;;4319032;33;20449;-73
2021/05/15 11:01:14;;;;;;;;;;;13.20;79.60;;;;;;4330274;33;20024;-74
2021/05/15 11:03:49;;;;;;;;;;;13.10;78.10;;;;;;4319060;33;20006;-73
2021/05/15 11:06:25;;;;;;;;;;;13.10;78.70;;;;;;4319541;33;20061;-73
2021/05/15 11:09:03;;;;;;;;;;;13.00;79.70;;;;;;4318221;33;20005;-73
2021/05/15 11:11:38;;;;;;;;;;;13.00;80.30;;;;;;4319204;33;20017;-73
2021/05/15 11:14:23;;;;;;;;;;;12.90;81.30;;;;;;4318999;33;20053;-73
2021/05/15 11:17:03;;;;;;;;;;;12.90;82.40;;;;;;4318994;33;20013;-73
2021/05/15 11:19:30;;;;;;;;;;;12.70;83.30;;;;;;4319089;33;20002;-73
2021/05/15 11:21:58;;;;;;;;;;;12.60;83.40;;;;;;4319187;33;20016;-73
2021/05/15 11:24:33;;;;;;;;;;;12.60;83.80;;;;;;4319203;33;20332;-73
2021/05/15 11:27:11;;;;;;;;;;;12.60;83.90;;;;;;4318998;33;20013;-73
2021/05/15 11:29:39;;;;;;;;;;;12.60;83.50;;;;;;4319030;33;20061;-73
2021/05/15 11:32:16;;;;;;;;;;;12.60;83.20;;;;;;4317767;33;20426;-73
2021/05/15 11:34:44;;;;;;;;;;;12.70;83.30;;;;;;4319040;33;20014;-74
2021/05/15 11:37:13;;;;;;;;;;;12.60;83.40;;;;;;4329795;33;20006;-74
2021/05/15 11:39:40;;;;;;;;;;;12.70;83.30;;;;;;4318245;33;20009;-73
2021/05/15 11:42:07;;;;;;;;;;;12.70;83.10;;;;;;4317569;33;20012;-73
2021/05/15 11:44:40;;;;;;;;;;;12.70;83.20;;;;;;4318515;33;20391;-73
2021/05/15 11:47:09;;;;;;;;;;;12.80;83.30;;;;;;4317917;33;20048;-73
2021/05/15 11:49:41;;;;;;;;;;;12.80;83.00;;;;;;4318259;33;20395;-73
2021/05/15 11:52:09;;;;;;;;;;;12.80;83.00;;;;;;4318338;33;20032;-73
2021/05/15 11:54:37;;;;;;;;;;;12.80;82.60;;;;;;4318817;33;20010;-73
2021/05/15 11:57:04;;;;;;;;;;;12.80;83.00;;;;;;4318591;33;20061;-73
2021/05/15 11:59:34;;;;;;;;;;;12.80;82.40;;;;;;4318447;33;20006;-73
2021/05/15 12:02:04;;;;;;;;;;;12.80;81.80;;;;;;4318230;33;20023;-73
2021/05/15 12:04:31;;;;;;;;;;;12.80;81.90;;;;;;4318896;33;20442;-73
2021/05/15 12:07:03;;;;;;;;;;;12.80;82.10;;;;;;4318396;33;20014;-73
2021/05/15 12:09:31;;;;;;;;;;;12.90;82.00;;;;;;4317653;33;20050;-73
2021/05/15 12:12:06;;;;;;;;;;;12.90;82.10;;;;;;4318507;33;20010;-74
2021/05/15 12:14:33;;;;;;;;;;;12.90;81.80;;;;;;4318356;33;20017;-73
2021/05/15 12:17:20;;;;;;;;;;;12.90;81.50;;;;;;4318090;33;20010;-74
2021/05/15 12:19:54;;;;;;;;;;;12.90;81.40;;;;;;4318599;33;20016;-73
2021/05/15 12:22:25;;;;;;;;;;;12.90;81.40;;;;;;4318388;33;20011;-73
2021/05/15 12:24:56;;;;;;;;;;;12.90;81.30;;;;;;4318103;33;20023;-74
2021/05/15 12:27:23;;;;;;;;;;;12.90;81.60;;;;;;4316961;33;20078;-74
2021/05/15 12:30:06;;;;;;;;;;;12.90;82.90;;;;;;4316924;33;20016;-73
2021/05/15 12:32:37;;;;;;;;;;;12.90;82.60;;;;;;4318288;33;20029;-73
2021/05/15 12:35:06;;;;;;;;;;;12.90;82.50;;;;;;4318007;33;20016;-73
2021/05/15 12:37:37;;;;;;;;;;;12.90;83.10;;;;;;4316869;33;20006;-73
2021/05/15 12:40:05;;;;;;;;;;;12.90;83.00;;;;;;4317837;33;20006;-73
2021/05/15 12:42:32;;;;;;;;;;;12.90;82.80;;;;;;4328827;33;20002;-73
2021/05/15 12:45:07;;;;;;;;;;;13.00;83.10;;;;;;4316580;33;20050;-73
2021/05/15 12:47:35;;;;;;;;;;;13.00;83.20;;;;;;4316258;33;22036;-73
2021/05/15 12:50:29;;;;;;;;;;;13.00;83.30;;;;;;4316971;33;20316;-73
2021/05/15 12:53:07;;;;;;;;;;;13.00;83.10;;;;;;4317567;33;20002;-73
2021/05/15 12:55:34;;;;;;;;;;;13.00;82.90;;;;;;4317476;33;20407;-73
2021/05/15 12:58:06;;;;;;;;;;;13.00;82.80;;;;;;4317611;33;20400;-73
2021/05/15 13:00:34;;;;;;;;;;;13.00;82.60;;;;;;4317458;33;20010;-73
2021/05/15 13:03:02;;;;;;;;;;;13.00;82.90;;;;;;4317159;33;20013;-73
2021/05/15 13:05:34;;;;;;;;;;;13.10;83.00;;;;;;4317914;33;20450;-73
2021/05/15 13:08:08;;;;;;;;;;;13.10;83.00;;;;;;4317940;33;20006;-73
2021/05/15 13:10:38;;;;;;;;;;;13.10;83.10;;;;;;4316116;33;19997;-73
2021/05/15 13:13:05;;;;;;;;;;;13.20;83.20;;;;;;4317663;33;20006;-73
2021/05/15 13:15:33;;;;;;;;;;;13.30;82.90;;;;;;4315950;33;19994;-73
2021/05/15 13:18:03;;;;;;;;;;;13.30;82.80;;;;;;4317155;33;20463;-73
2021/05/15 13:20:30;;;;;;;;;;;13.30;82.90;;;;;;4317850;33;20006;-73
2021/05/15 13:22:57;;;;;;;;;;;13.30;83.10;;;;;;4317671;33;20047;-73
2021/05/15 13:25:27;;;;;;;;;;;13.30;83.10;;;;;;4317328;33;20009;-74
2021/05/15 13:27:54;;;;;;;;;;;13.30;82.60;;;;;;4317264;33;20045;-73
2021/05/15 13:30:21;;;;;;;;;;;13.30;82.20;;;;;;4317655;33;20010;-73
2021/05/15 13:32:49;;;;;;;;;;;13.40;82.40;;;;;;4316062;33;20419;-73
2021/05/15 13:35:16;;;;;;;;;;;13.40;82.40;;;;;;4317450;33;20006;-73
2021/05/15 13:37:43;;;;;;;;;;;13.40;82.40;;;;;;4317125;33;20014;-73
2021/05/15 13:40:10;;;;;;;;;;;13.40;82.60;;;;;;4317320;33;20495;-73
2021/05/15 13:42:40;;;;;;;;;;;13.40;82.60;;;;;;4317520;33;20001;-74
2021/05/15 13:45:10;;;;;;;;;;;13.40;82.50;;;;;;4317213;33;20022;-73
2021/05/15 13:47:37;;;;;;;;;;;13.40;82.30;;;;;;4315939;33;20027;-73
2021/05/15 13:50:07;;;;;;;;;;;13.40;82.50;;;;;;4317323;33;20014;-73
2021/05/15 13:52:34;;;;;;;;;;;13.40;82.30;;;;;;4328354;33;20021;-73
2021/05/15 13:55:01;;;;;;;;;;;13.50;82.00;;;;;;4317357;33;20006;-73
2021/05/15 13:57:28;;;;;;;;;;;13.50;81.90;;;;;;4315862;33;19997;-73
2021/05/15 13:59:55;;;;;;;;;;;13.50;81.90;;;;;;4327876;33;20009;-73
2021/05/15 14:02:22;;;;;;;;;;;13.50;82.00;;;;;;4316933;33;20074;-73
2021/05/15 14:04:50;;;;;;;;;;;13.50;82.60;;;;;;4317144;33;20091;-73
2021/05/15 14:07:17;;;;;;;;;;;13.50;82.30;;;;;;4317162;33;20006;-73
2021/05/15 14:09:46;;;;;;;;;;;13.50;82.70;;;;;;4317108;33;20040;-73
2021/05/15 14:12:13;;;;;;;;;;;13.50;82.60;;;;;;4318086;33;20010;-73
2021/05/15 14:14:40;;;;;;;;;;;13.60;82.50;;;;;;4331031;33;20014;-73
2021/05/15 14:17:10;;;;;;;;;;;13.50;83.20;;;;;;4320290;33;20006;-74
2021/05/15 14:19:39;;;;;;;;;;;13.50;83.20;;;;;;4320016;33;20403;-74
2021/05/15 14:22:07;;;;;;;;;;;13.50;83.70;;;;;;4320055;33;20070;-74
2021/05/15 14:24:39;;;;;;;;;;;13.50;84.10;;;;;;4319774;33;20028;-73